createdAt,value
2019-05-18T00:00:29.038Z,15.17
2019-05-18T00:05:25.064Z,15.70
2019-05-18T00:10:20.988Z,14.57
2019-05-18T00:15:16.913Z,14.90
2019-05-18T00:20:15.036Z,14.67
2019-05-18T00:25:15.524Z,16.37
2019-05-18T00:30:14.342Z,14.50
2019-05-18T00:35:12.162Z,16.63
2019-05-18T00:40:08.609Z,15.43
2019-05-18T00:45:05.746Z,15.47
2019-05-18T00:50:26.082Z,15.63
2019-05-18T00:55:22.114Z,14.30
2019-05-18T01:00:18.145Z,17.33
2019-05-18T01:05:14.216Z,16.33
2019-05-18T01:10:10.602Z,15.23
2019-05-18T01:15:07.281Z,14.87
2019-05-18T01:20:13.836Z,15.07
2019-05-18T01:25:09.940Z,16.27
2019-05-18T01:30:06.979Z,15.40
2019-05-18T01:35:04.793Z,17.67
2019-05-18T01:40:00.862Z,17.37
2019-05-18T01:44:56.804Z,15.77
2019-05-18T01:49:56.940Z,16.70
2019-05-18T01:54:52.971Z,16.83
2019-05-18T01:59:48.898Z,16.53
2019-05-18T02:04:44.792Z,16.77
2019-05-18T02:09:40.724Z,18.27
2019-05-18T02:14:36.635Z,17.17
2019-05-18T02:19:33.954Z,17.83
2019-05-18T02:24:29.990Z,19.83
2019-05-18T02:29:25.926Z,19.43
2019-05-18T02:34:21.883Z,18.90
2019-05-18T02:39:17.812Z,18.57
2019-05-18T02:44:13.763Z,19.37
2019-05-18T02:49:09.688Z,18.43
2019-05-18T02:54:05.718Z,18.57
2019-05-18T02:59:01.649Z,20.57
2019-05-18T03:03:57.658Z,19.53
2019-05-18T03:08:53.586Z,17.50
2019-05-18T03:13:49.613Z,18.50
2019-05-18T03:18:45.650Z,19.77
2019-05-18T03:23:41.623Z,19.20
2019-05-18T03:28:37.549Z,18.63
2019-05-18T03:33:33.474Z,19.87
2019-05-18T03:38:29.405Z,20.60
2019-05-18T03:43:25.441Z,20.53
2019-05-18T03:48:21.584Z,19.50
2019-05-18T03:53:18.398Z,19.40
2019-05-18T03:58:14.862Z,19.50
2019-05-18T04:03:10.854Z,20.30
2019-05-18T04:08:06.791Z,20.10
2019-05-18T04:13:02.718Z,20.93
2019-05-18T04:17:58.711Z,22.70
2019-05-18T04:22:54.718Z,20.07
2019-05-18T04:27:50.649Z,20.70
2019-05-18T04:32:46.573Z,20.27
2019-05-18T04:37:42.508Z,21.47
2019-05-18T04:42:38.478Z,21.10
2019-05-18T04:47:34.414Z,21.83
2019-05-18T04:52:30.347Z,21.87
2019-05-18T04:57:26.270Z,20.90
2019-05-18T05:02:22.697Z,21.57
2019-05-18T05:07:18.630Z,21.43
2019-05-18T05:12:14.556Z,20.87
2019-05-18T05:17:10.454Z,22.23
2019-05-18T05:22:06.407Z,20.90
2019-05-18T05:27:02.337Z,19.40
2019-05-18T05:31:58.270Z,20.13
2019-05-18T05:36:54.306Z,20.63
2019-05-18T05:41:50.241Z,20.17
2019-05-18T05:46:46.178Z,19.97
2019-05-18T05:51:42.105Z,19.10
2019-05-18T05:56:38.033Z,19.53
2019-05-18T06:01:34.004Z,18.97
2019-05-18T06:06:29.934Z,18.53
2019-05-18T06:11:25.856Z,18.47
2019-05-18T06:16:21.789Z,17.87
2019-05-18T06:21:17.708Z,17.90
2019-05-18T06:26:13.646Z,18.70
2019-05-18T06:31:09.576Z,17.70
2019-05-18T06:36:05.513Z,18.50
2019-05-18T06:41:02.237Z,18.30
2019-05-18T06:45:58.167Z,16.80
2019-05-18T06:51:06.301Z,16.57
2019-05-18T06:55:52.645Z,14.20
2019-05-18T07:00:48.578Z,9.40
2019-05-18T07:05:45.258Z,9.27
2019-05-18T07:10:41.569Z,8.50
2019-05-18T07:15:37.494Z,7.50
2019-05-18T07:20:33.774Z,7.97
2019-05-18T07:25:30.402Z,6.80
2019-05-18T07:30:26.428Z,6.53
2019-05-18T07:35:22.348Z,6.50
2019-05-18T07:40:18.378Z,6.50
2019-05-18T07:45:14.623Z,5.47
2019-05-18T07:50:16.350Z,5.40
2019-05-18T07:55:12.942Z,5.73
2019-05-18T08:00:09.400Z,5.07
2019-05-18T08:05:07.007Z,4.73
2019-05-18T08:10:05.043Z,4.23
2019-05-18T08:15:00.968Z,3.97
2019-05-18T08:20:01.188Z,11.47
2019-05-18T08:24:57.207Z,9.53
2019-05-18T08:29:53.137Z,10.63
2019-05-18T08:34:49.061Z,10.77
2019-05-18T08:39:44.993Z,11.03
2019-05-18T08:44:40.930Z,10.37
2019-05-18T08:49:36.834Z,11.37
2019-05-18T08:54:32.769Z,10.03
2019-05-18T08:59:28.705Z,5.00
2019-05-18T09:04:24.639Z,6.90
2019-05-18T09:09:20.568Z,5.83
2019-05-18T09:14:16.503Z,5.70
2019-05-18T09:19:12.532Z,7.20
2019-05-18T09:24:08.465Z,7.13
2019-05-18T09:29:04.617Z,8.40
2019-05-18T09:34:00.873Z,7.10
2019-05-18T09:38:56.801Z,6.90
2019-05-18T09:43:52.753Z,5.47
2019-05-18T09:48:48.677Z,5.13
2019-05-18T09:53:51.578Z,5.90
2019-05-18T09:58:42.432Z,5.10
2019-05-18T10:03:38.358Z,4.80
2019-05-18T10:08:34.391Z,3.80
2019-05-18T10:13:30.326Z,4.53
2019-05-18T10:18:26.250Z,4.87
2019-05-18T10:23:22.177Z,4.60
2019-05-18T10:28:18.112Z,4.10
2019-05-18T10:33:14.042Z,4.10
2019-05-18T10:38:09.974Z,3.67
2019-05-18T10:43:05.888Z,3.80
2019-05-18T10:48:01.964Z,3.77
2019-05-18T10:53:02.408Z,3.67
2019-05-18T10:58:02.084Z,3.23
2019-05-18T11:03:03.305Z,3.83
2019-05-18T11:08:00.146Z,3.83
2019-05-18T11:12:57.162Z,3.87
2019-05-18T11:17:53.185Z,3.93
2019-05-18T11:22:49.114Z,3.40
2019-05-18T11:27:45.038Z,3.57
2019-05-18T11:32:41.023Z,3.47
2019-05-18T11:37:36.940Z,3.17
2019-05-18T11:42:33.064Z,3.30
2019-05-18T11:47:29.093Z,3.20
2019-05-18T11:52:25.021Z,3.53
2019-05-18T11:57:21.111Z,3.20
2019-05-18T12:02:17.210Z,2.80
2019-05-18T12:07:13.202Z,3.40
2019-05-18T12:12:09.252Z,3.20
2019-05-18T12:17:05.155Z,3.10
2019-05-18T12:22:01.072Z,3.03
2019-05-18T12:26:57.191Z,2.60
2019-05-18T12:31:53.194Z,2.73
2019-05-18T12:36:49.302Z,2.70
2019-05-18T12:41:45.283Z,3.63
2019-05-18T12:46:41.283Z,3.27
2019-05-18T12:51:37.415Z,2.53
2019-05-18T12:56:33.330Z,2.57
2019-05-18T13:01:29.339Z,2.97
2019-05-18T13:06:25.266Z,2.80
2019-05-18T13:11:21.222Z,3.30
2019-05-18T13:16:17.148Z,2.83
2019-05-18T13:21:13.088Z,3.20
2019-05-18T13:26:09.128Z,3.07
2019-05-18T13:31:05.057Z,2.57
2019-05-18T13:36:01.018Z,2.40
2019-05-18T13:40:56.949Z,2.97
2019-05-18T13:45:56.541Z,3.10
2019-05-18T13:50:52.526Z,2.80
2019-05-18T13:55:48.559Z,3.00
2019-05-18T14:00:44.555Z,2.77
2019-05-18T14:05:45.272Z,3.20
2019-05-18T14:10:45.675Z,3.40
2019-05-18T14:15:42.585Z,4.57
2019-05-18T14:20:39.812Z,3.20
2019-05-18T14:25:35.862Z,3.30
2019-05-18T14:30:32.268Z,3.37
2019-05-18T14:35:33.402Z,3.20
2019-05-18T14:40:31.689Z,2.53
2019-05-18T14:45:28.016Z,2.83
2019-05-18T14:50:24.724Z,2.87
2019-05-18T14:55:32.763Z,3.20
2019-05-18T15:00:19.012Z,2.70
2019-05-18T15:05:20.338Z,3.17
2019-05-18T15:10:19.162Z,3.00
2019-05-18T15:15:15.417Z,2.93
2019-05-18T15:20:15.765Z,2.60
2019-05-18T15:25:13.036Z,2.97
2019-05-18T15:30:09.253Z,3.10
2019-05-18T15:35:06.005Z,2.90
2019-05-18T15:40:03.141Z,2.93
2019-05-18T15:45:00.336Z,4.10
2019-05-18T15:50:01.179Z,3.60
2019-05-18T15:54:59.524Z,3.60
2019-05-18T15:59:56.116Z,3.10
2019-05-18T16:04:52.662Z,2.97
2019-05-18T16:09:48.594Z,4.67
2019-05-18T16:14:44.516Z,3.60
2019-05-18T16:19:50.734Z,3.53
2019-05-18T16:24:46.665Z,3.77
2019-05-18T16:29:46.209Z,3.27
2019-05-18T16:34:43.087Z,2.60
2019-05-18T16:39:39.689Z,3.40
2019-05-18T16:44:35.935Z,3.17
2019-05-18T16:49:34.397Z,3.30
2019-05-18T16:54:31.333Z,2.90
2019-05-18T16:59:28.268Z,3.77
2019-05-18T17:04:29.343Z,3.60
2019-05-18T17:09:29.439Z,3.10
2019-05-18T17:14:26.672Z,3.63
2019-05-18T17:19:26.189Z,3.50
2019-05-18T17:24:23.496Z,3.20
2019-05-18T17:29:21.581Z,2.73
2019-05-18T17:34:17.714Z,3.70
2019-05-18T17:39:13.732Z,2.80
2019-05-18T17:44:13.267Z,2.90
2019-05-18T17:49:25.848Z,3.27
2019-05-18T17:54:10.539Z,2.93
2019-05-18T17:59:08.433Z,3.20
2019-05-18T18:04:07.107Z,3.10
2019-05-18T18:09:06.746Z,2.73
2019-05-18T18:14:03.289Z,2.90
2019-05-18T18:18:59.218Z,2.53
2019-05-18T18:23:55.446Z,2.47
2019-05-18T18:28:51.471Z,2.60
2019-05-18T18:33:47.619Z,2.70
2019-05-18T18:38:47.312Z,2.40
2019-05-18T18:43:43.330Z,2.50
2019-05-18T18:48:39.257Z,2.33
2019-05-18T18:53:35.180Z,2.13
2019-05-18T18:58:31.101Z,2.70
2019-05-18T19:03:27.673Z,2.30
2019-05-18T19:08:23.569Z,2.43
2019-05-18T19:13:19.527Z,2.37
2019-05-18T19:18:16.320Z,2.73
2019-05-18T19:23:12.332Z,2.70
2019-05-18T19:28:10.173Z,3.17
2019-05-18T19:33:06.257Z,2.67
2019-05-18T19:38:02.298Z,2.80
2019-05-18T19:42:58.221Z,2.67
2019-05-18T19:47:54.198Z,2.93
2019-05-18T19:52:50.121Z,2.37
2019-05-18T19:57:46.048Z,3.10
2019-05-18T20:02:41.987Z,3.47
2019-05-18T20:07:38.015Z,3.23
2019-05-18T20:12:33.979Z,4.13
2019-05-18T20:17:29.921Z,4.87
2019-05-18T20:22:25.843Z,3.97
2019-05-18T20:27:21.773Z,4.07
2019-05-18T20:32:17.713Z,4.00
2019-05-18T20:37:13.608Z,5.73
2019-05-18T20:42:09.593Z,5.20
2019-05-18T20:47:05.529Z,4.80
2019-05-18T20:52:01.456Z,4.10
2019-05-18T20:56:57.381Z,4.70
2019-05-18T21:01:53.358Z,4.43
2019-05-18T21:06:49.392Z,4.67
2019-05-18T21:11:45.332Z,5.83
2019-05-18T21:16:41.269Z,5.60
2019-05-18T21:21:37.194Z,5.67
2019-05-18T21:26:33.125Z,4.83
2019-05-18T21:31:29.049Z,5.93
2019-05-18T21:36:25.561Z,6.30
2019-05-18T21:41:23.642Z,6.90
2019-05-18T21:46:19.593Z,6.67
2019-05-18T21:51:15.713Z,7.10
2019-05-18T21:56:11.665Z,6.47
2019-05-18T22:01:07.988Z,7.53
2019-05-18T22:06:03.918Z,7.80
2019-05-18T22:11:00.065Z,9.60
2019-05-18T22:15:56.090Z,8.50
2019-05-18T22:20:52.030Z,8.07
2019-05-18T22:25:48.000Z,10.73
2019-05-18T22:30:44.035Z,7.90
2019-05-18T22:35:39.977Z,9.17
2019-05-18T22:40:35.912Z,7.40
2019-05-18T22:45:31.876Z,6.97
2019-05-18T22:50:27.800Z,6.70
2019-05-18T22:55:23.737Z,6.33
2019-05-18T23:00:20.002Z,6.73
2019-05-18T23:05:16.014Z,7.13
2019-05-18T23:10:12.642Z,8.77
2019-05-18T23:15:08.662Z,8.17
2019-05-18T23:20:04.795Z,7.87
2019-05-18T23:25:00.813Z,7.57
2019-05-18T23:30:09.326Z,8.50
2019-05-18T23:35:06.051Z,7.83
2019-05-18T23:40:03.619Z,7.60
2019-05-18T23:44:59.553Z,8.50
2019-05-18T23:49:55.479Z,7.20
2019-05-18T23:54:51.507Z,7.57
2019-05-18T23:59:47.475Z,7.93
